createdAt,value
2019-05-26T00:00:49.303Z,73.08
2019-05-26T00:03:15.411Z,73.10
2019-05-26T00:05:41.558Z,73.64
2019-05-26T00:08:07.601Z,74.23
2019-05-26T00:10:33.727Z,74.25
2019-05-26T00:12:59.626Z,73.77
2019-05-26T00:15:25.765Z,73.56
2019-05-26T00:17:51.803Z,73.37
2019-05-26T00:20:17.904Z,73.33
2019-05-26T00:22:44.046Z,73.22
2019-05-26T00:25:10.879Z,73.29
2019-05-26T00:27:36.886Z,73.78
2019-05-26T00:30:08.011Z,74.05
2019-05-26T00:32:34.011Z,74.07
2019-05-26T00:34:59.942Z,74.10
2019-05-26T00:37:26.058Z,73.99
2019-05-26T00:39:51.957Z,73.90
2019-05-26T00:42:18.092Z,73.80
2019-05-26T00:44:44.100Z,73.95
2019-05-26T00:47:10.231Z,73.95
2019-05-26T00:49:36.378Z,74.48
2019-05-26T00:52:02.503Z,74.71
2019-05-26T00:54:28.648Z,74.20
2019-05-26T00:56:54.686Z,74.27
2019-05-26T00:59:20.789Z,74.26
2019-05-26T01:01:46.997Z,74.12
2019-05-26T01:04:13.110Z,73.98
2019-05-26T01:06:39.212Z,74.14
2019-05-26T01:09:06.926Z,74.18
2019-05-26T01:11:33.037Z,74.58
2019-05-26T01:13:59.033Z,74.42
2019-05-26T01:16:24.983Z,74.36
2019-05-26T01:18:51.084Z,74.72
2019-05-26T01:21:17.240Z,75.07
2019-05-26T01:23:43.246Z,75.25
2019-05-26T01:26:09.366Z,75.17
2019-05-26T01:28:35.269Z,74.79
2019-05-26T01:31:01.285Z,74.41
2019-05-26T01:33:27.393Z,74.31
2019-05-26T01:35:53.499Z,74.13
2019-05-26T01:38:24.142Z,74.22
2019-05-26T01:40:48.412Z,74.29
2019-05-26T01:43:14.430Z,74.33
2019-05-26T01:45:40.530Z,74.19
2019-05-26T01:48:06.735Z,74.31
2019-05-26T01:50:32.982Z,74.64
2019-05-26T01:52:58.890Z,74.95
2019-05-26T01:55:24.933Z,74.98
2019-05-26T01:57:50.912Z,74.96
2019-05-26T02:00:17.066Z,74.88
2019-05-26T02:02:43.114Z,75.15
2019-05-26T02:05:09.208Z,75.33
2019-05-26T02:07:35.246Z,75.70
2019-05-26T02:10:01.759Z,75.99
2019-05-26T02:12:27.693Z,76.56
2019-05-26T02:14:53.730Z,76.54
2019-05-26T02:17:19.745Z,76.89
2019-05-26T02:19:45.674Z,77.67
2019-05-26T02:22:11.787Z,78.02
2019-05-26T02:24:37.898Z,77.83
2019-05-26T02:27:03.911Z,78.16
2019-05-26T02:29:29.824Z,78.51
2019-05-26T02:31:55.843Z,78.61
2019-05-26T02:34:22.011Z,78.52
2019-05-26T02:36:47.998Z,78.09
2019-05-26T02:39:14.130Z,77.93
2019-05-26T02:41:40.266Z,77.84
2019-05-26T02:44:06.494Z,77.91
2019-05-26T02:46:32.578Z,77.87
2019-05-26T02:48:58.688Z,77.79
2019-05-26T02:51:24.857Z,77.98
2019-05-26T02:53:50.991Z,78.18
2019-05-26T02:56:17.087Z,78.16
2019-05-26T02:58:43.127Z,78.34
2019-05-26T03:01:09.449Z,78.50
2019-05-26T03:03:35.656Z,78.66
2019-05-26T03:06:02.958Z,78.70
2019-05-26T03:08:29.478Z,78.70
2019-05-26T03:10:57.868Z,78.84
2019-05-26T03:13:26.270Z,79.20
2019-05-26T03:15:54.792Z,79.32
2019-05-26T03:18:20.794Z,79.39
2019-05-26T03:20:46.900Z,79.44
2019-05-26T03:23:15.010Z,79.09
2019-05-26T03:25:41.112Z,79.57
2019-05-26T03:28:07.839Z,79.62
2019-05-26T03:30:34.617Z,79.85
2019-05-26T03:33:00.639Z,79.96
2019-05-26T03:35:26.664Z,80.16
2019-05-26T03:37:52.570Z,79.96
2019-05-26T03:40:18.685Z,80.01
2019-05-26T03:42:44.731Z,79.75
2019-05-26T03:45:14.393Z,79.31
2019-05-26T03:47:40.448Z,79.20
2019-05-26T03:50:06.856Z,79.18
2019-05-26T03:52:32.897Z,79.36
2019-05-26T03:54:58.891Z,79.42
2019-05-26T03:57:24.932Z,79.29
2019-05-26T03:59:50.940Z,79.03
2019-05-26T04:02:16.971Z,79.17
2019-05-26T04:04:42.877Z,79.26
2019-05-26T04:07:09.020Z,79.22
2019-05-26T04:09:34.924Z,79.79
2019-05-26T04:12:00.839Z,79.79
2019-05-26T04:14:26.848Z,79.82
2019-05-26T04:16:56.239Z,79.87
2019-05-26T04:19:20.913Z,79.72
2019-05-26T04:21:47.466Z,79.56
2019-05-26T04:24:13.600Z,79.57
2019-05-26T04:26:40.302Z,79.73
2019-05-26T04:29:06.304Z,80.09
2019-05-26T04:31:32.422Z,80.79
2019-05-26T04:33:58.349Z,81.17
2019-05-26T04:36:24.385Z,81.72
2019-05-26T04:38:50.393Z,82.52
2019-05-26T04:41:16.435Z,82.70
2019-05-26T04:43:42.352Z,82.99
2019-05-26T04:46:08.363Z,83.11
2019-05-26T04:48:34.306Z,83.34
2019-05-26T04:51:00.335Z,82.80
2019-05-26T04:53:26.339Z,82.95
2019-05-26T04:55:52.495Z,83.43
2019-05-26T04:58:18.603Z,83.61
2019-05-26T05:00:44.645Z,83.43
2019-05-26T05:03:10.757Z,82.93
2019-05-26T05:05:36.658Z,82.28
2019-05-26T05:08:02.892Z,82.79
2019-05-26T05:10:41.979Z,83.53
2019-05-26T05:12:56.919Z,82.84
2019-05-26T05:15:23.030Z,83.46
2019-05-26T05:17:49.040Z,83.22
2019-05-26T05:20:15.240Z,83.04
2019-05-26T05:22:41.160Z,82.79
2019-05-26T05:25:13.890Z,83.09
2019-05-26T05:27:35.388Z,83.14
2019-05-26T05:30:03.464Z,83.49
2019-05-26T05:32:32.810Z,83.50
2019-05-26T05:34:57.316Z,83.16
2019-05-26T05:37:25.312Z,83.01
2019-05-26T05:39:51.340Z,82.82
2019-05-26T05:42:17.447Z,82.61
2019-05-26T05:44:43.464Z,82.26
2019-05-26T05:47:09.571Z,82.29
2019-05-26T05:49:35.694Z,82.21
2019-05-26T05:52:01.696Z,82.17
2019-05-26T05:54:27.717Z,82.54
2019-05-26T05:56:55.747Z,82.70
2019-05-26T05:59:21.650Z,82.49
2019-05-26T06:01:47.540Z,82.41
2019-05-26T06:04:13.558Z,82.43
2019-05-26T06:06:39.571Z,82.35
2019-05-26T06:09:05.883Z,81.86
2019-05-26T06:11:31.997Z,81.28
2019-05-26T06:13:57.944Z,81.31
2019-05-26T06:16:24.115Z,81.19
2019-05-26T06:18:50.219Z,81.24
2019-05-26T06:21:16.324Z,80.92
2019-05-26T06:23:42.327Z,80.59
2019-05-26T06:26:08.483Z,80.46
2019-05-26T06:28:34.606Z,80.44
2019-05-26T06:31:00.753Z,79.97
2019-05-26T06:33:26.795Z,80.16
2019-05-26T06:35:52.915Z,79.50
2019-05-26T06:38:18.921Z,79.22
2019-05-26T06:40:44.939Z,78.96
2019-05-26T06:43:11.078Z,78.56
2019-05-26T06:45:37.092Z,77.74
2019-05-26T06:48:03.237Z,77.24
2019-05-26T06:50:29.364Z,76.75
2019-05-26T06:52:55.379Z,76.47
2019-05-26T06:55:21.370Z,75.97
2019-05-26T06:57:47.307Z,75.73
2019-05-26T07:00:13.813Z,75.32
2019-05-26T07:02:39.918Z,74.72
2019-05-26T07:05:06.633Z,74.45
2019-05-26T07:07:32.790Z,74.40
2019-05-26T07:09:58.802Z,74.40
2019-05-26T07:12:24.754Z,73.68
2019-05-26T07:14:50.762Z,73.05
2019-05-26T07:17:20.396Z,72.60
2019-05-26T07:19:44.721Z,72.75
2019-05-26T07:22:10.725Z,71.70
2019-05-26T07:24:36.840Z,71.08
2019-05-26T07:27:02.949Z,70.61
2019-05-26T07:29:28.989Z,69.70
2019-05-26T07:31:55.020Z,69.91
2019-05-26T07:34:20.923Z,69.64
2019-05-26T07:36:46.931Z,69.70
2019-05-26T07:39:13.037Z,68.84
2019-05-26T07:41:39.161Z,68.43
2019-05-26T07:44:05.268Z,68.44
2019-05-26T07:46:31.278Z,67.60
2019-05-26T07:48:57.196Z,66.99
2019-05-26T07:51:23.139Z,66.46
2019-05-26T07:53:49.148Z,65.67
2019-05-26T07:56:15.163Z,65.83
2019-05-26T07:58:41.074Z,66.35
2019-05-26T08:01:07.200Z,66.05
2019-05-26T08:03:33.327Z,65.84
2019-05-26T08:05:59.326Z,66.03
2019-05-26T08:08:25.355Z,65.85
2019-05-26T08:10:51.460Z,64.89
2019-05-26T08:13:17.581Z,65.86
2019-05-26T08:15:43.584Z,65.04
2019-05-26T08:18:09.703Z,65.32
2019-05-26T08:20:35.817Z,65.57
2019-05-26T08:23:01.953Z,65.13
2019-05-26T08:25:28.080Z,63.97
2019-05-26T08:27:54.092Z,64.17
2019-05-26T08:30:20.231Z,63.58
2019-05-26T08:32:46.334Z,63.49
2019-05-26T08:35:12.465Z,62.80
2019-05-26T08:37:38.581Z,62.19
2019-05-26T08:40:17.119Z,61.45
2019-05-26T08:42:44.753Z,61.72
2019-05-26T08:45:10.979Z,58.92
2019-05-26T08:47:37.161Z,58.59
2019-05-26T08:50:05.379Z,55.89
2019-05-26T08:52:31.406Z,55.91
2019-05-26T08:54:57.417Z,55.30
2019-05-26T08:57:23.567Z,55.73
2019-05-26T08:59:49.489Z,53.82
2019-05-26T09:02:15.419Z,53.98
2019-05-26T09:04:41.399Z,54.22
2019-05-26T09:07:07.516Z,54.41
2019-05-26T09:09:33.557Z,53.57
2019-05-26T09:11:59.742Z,53.16
2019-05-26T09:14:25.759Z,52.96
2019-05-26T09:16:51.881Z,54.71
2019-05-26T09:19:18.023Z,53.21
2019-05-26T09:21:44.214Z,54.19
2019-05-26T09:24:10.372Z,54.05
2019-05-26T09:26:36.533Z,52.68
2019-05-26T09:29:02.834Z,50.33
2019-05-26T09:31:28.981Z,49.50
2019-05-26T09:33:54.991Z,49.24
2019-05-26T09:36:21.001Z,51.39
2019-05-26T09:38:47.078Z,50.90
2019-05-26T09:41:13.186Z,51.80
2019-05-26T09:43:39.345Z,52.32
2019-05-26T09:46:05.358Z,52.66
2019-05-26T09:48:31.499Z,53.07
2019-05-26T09:50:57.669Z,52.67
2019-05-26T09:53:23.784Z,52.29
2019-05-26T09:55:49.904Z,52.92
2019-05-26T09:58:16.016Z,53.68
2019-05-26T10:00:43.734Z,51.21
2019-05-26T10:03:09.653Z,51.83
2019-05-26T10:05:35.651Z,49.51
2019-05-26T10:08:01.730Z,51.11
2019-05-26T10:10:27.731Z,50.92
2019-05-26T10:12:53.839Z,50.67
2019-05-26T10:15:20.052Z,50.72
2019-05-26T10:17:46.059Z,51.52
2019-05-26T10:20:12.362Z,51.24
2019-05-26T10:22:38.487Z,48.93
2019-05-26T10:25:05.192Z,49.30
2019-05-26T10:27:31.271Z,48.17
2019-05-26T10:29:57.356Z,49.54
2019-05-26T10:32:23.524Z,49.46
2019-05-26T10:34:49.552Z,48.28
2019-05-26T10:37:15.588Z,48.40
2019-05-26T10:39:44.865Z,48.50
2019-05-26T10:42:09.699Z,48.70
2019-05-26T10:44:35.603Z,45.56
2019-05-26T10:47:01.710Z,45.53
2019-05-26T10:49:27.728Z,47.01
2019-05-26T10:51:53.805Z,46.75
2019-05-26T10:54:19.806Z,46.79
2019-05-26T10:56:45.949Z,46.91
2019-05-26T10:59:11.949Z,46.63
2019-05-26T11:01:38.011Z,47.27
2019-05-26T11:04:04.238Z,48.87
2019-05-26T11:06:30.373Z,48.16
2019-05-26T11:08:56.379Z,46.15
2019-05-26T11:11:22.324Z,45.87
2019-05-26T11:14:01.869Z,45.51
2019-05-26T11:16:16.891Z,44.55
2019-05-26T11:18:42.888Z,44.60
2019-05-26T11:21:12.240Z,44.95
2019-05-26T11:23:37.072Z,45.93
2019-05-26T11:26:03.868Z,46.39
2019-05-26T11:28:29.992Z,45.10
2019-05-26T11:30:55.953Z,45.80
2019-05-26T11:33:21.990Z,46.59
2019-05-26T11:35:47.881Z,46.71
2019-05-26T11:38:13.927Z,46.11
2019-05-26T11:40:40.043Z,46.13
2019-05-26T11:43:16.388Z,47.10
2019-05-26T11:45:34.213Z,47.34
2019-05-26T11:48:00.379Z,47.52
2019-05-26T11:50:26.387Z,47.92
2019-05-26T11:52:52.500Z,47.67
2019-05-26T11:55:18.606Z,46.81
2019-05-26T11:57:44.650Z,45.76
2019-05-26T12:00:14.186Z,45.77
2019-05-26T12:02:40.427Z,45.38
2019-05-26T12:05:06.931Z,45.37
2019-05-26T12:07:32.944Z,45.43
2019-05-26T12:09:58.956Z,45.05
2019-05-26T12:12:24.952Z,45.55
2019-05-26T12:14:50.859Z,45.39
2019-05-26T12:17:16.867Z,45.87
2019-05-26T12:19:42.888Z,45.36
2019-05-26T12:22:09.192Z,45.06
2019-05-26T12:24:35.202Z,45.16
2019-05-26T12:27:01.203Z,44.51
2019-05-26T12:29:27.213Z,45.86
2019-05-26T12:31:53.210Z,44.06
2019-05-26T12:34:19.977Z,42.84
2019-05-26T12:36:46.080Z,43.16
2019-05-26T12:39:12.099Z,43.28
2019-05-26T12:41:38.008Z,44.03
2019-05-26T12:44:04.222Z,44.05
2019-05-26T12:46:30.251Z,43.58
2019-05-26T12:48:56.228Z,45.14
2019-05-26T12:51:22.227Z,46.07
2019-05-26T12:53:48.243Z,46.76
2019-05-26T12:56:15.231Z,46.55
2019-05-26T12:58:41.404Z,46.66
2019-05-26T13:01:07.495Z,47.07
2019-05-26T13:03:33.535Z,47.87
2019-05-26T13:05:59.667Z,47.57
2019-05-26T13:08:25.717Z,48.32
2019-05-26T13:10:51.727Z,47.33
2019-05-26T13:13:17.860Z,46.79
2019-05-26T13:15:43.982Z,46.12
2019-05-26T13:18:10.096Z,45.06
2019-05-26T13:20:36.235Z,44.69
2019-05-26T13:23:02.378Z,45.34
2019-05-26T13:25:28.515Z,45.07
2019-05-26T13:27:54.534Z,46.81
2019-05-26T13:30:22.855Z,46.12
2019-05-26T13:32:49.074Z,45.68
2019-05-26T13:35:15.415Z,46.20
2019-05-26T13:37:41.483Z,44.68
2019-05-26T13:40:08.721Z,44.68
2019-05-26T13:42:35.076Z,45.18
2019-05-26T13:45:01.175Z,45.18
2019-05-26T13:47:27.225Z,44.31
2019-05-26T13:49:53.329Z,44.31
2019-05-26T13:52:19.481Z,44.23
2019-05-26T13:54:45.510Z,43.62
2019-05-26T13:57:11.669Z,43.68
2019-05-26T13:59:37.704Z,43.68
2019-05-26T14:02:03.924Z,43.66
2019-05-26T14:04:30.042Z,43.66
2019-05-26T14:06:56.154Z,44.31
2019-05-26T14:09:22.278Z,44.53
2019-05-26T14:11:48.290Z,44.65
2019-05-26T14:14:14.822Z,44.95
2019-05-26T14:16:43.142Z,45.17
2019-05-26T14:19:09.489Z,45.29
2019-05-26T14:21:35.486Z,45.59
2019-05-26T14:24:01.441Z,46.08
2019-05-26T14:26:27.369Z,46.38
2019-05-26T14:28:53.379Z,46.96
2019-05-26T14:31:19.546Z,47.43
2019-05-26T14:33:45.450Z,47.43
2019-05-26T14:36:11.486Z,47.86
2019-05-26T14:38:43.161Z,48.63
2019-05-26T14:41:05.405Z,48.24
2019-05-26T14:43:31.603Z,47.38
2019-05-26T14:45:57.708Z,47.56
2019-05-26T14:48:23.821Z,48.05
2019-05-26T14:50:49.922Z,48.60
2019-05-26T14:53:16.068Z,48.65
2019-05-26T14:55:42.075Z,48.27
2019-05-26T14:58:15.876Z,48.55
2019-05-26T15:00:36.196Z,48.65
2019-05-26T15:03:02.804Z,48.57
2019-05-26T15:05:28.910Z,49.60
2019-05-26T15:07:55.029Z,49.43
2019-05-26T15:10:22.694Z,48.97
2019-05-26T15:12:49.170Z,49.36
2019-05-26T15:15:16.570Z,50.11
2019-05-26T15:17:42.784Z,50.10
2019-05-26T15:20:09.391Z,50.48
2019-05-26T15:22:35.427Z,51.35
2019-05-26T15:25:03.467Z,50.93
2019-05-26T15:27:29.482Z,51.65
2019-05-26T15:29:55.382Z,51.74
2019-05-26T15:32:21.498Z,52.22
2019-05-26T15:34:47.400Z,50.79
2019-05-26T15:37:13.539Z,51.36
2019-05-26T15:39:39.559Z,51.46
2019-05-26T15:42:08.330Z,52.15
2019-05-26T15:44:33.589Z,52.27
2019-05-26T15:46:59.925Z,52.70
2019-05-26T15:49:26.040Z,52.79
2019-05-26T15:51:52.155Z,52.96
2019-05-26T15:54:18.174Z,53.44
2019-05-26T15:56:44.194Z,54.02
2019-05-26T15:59:10.304Z,54.89
2019-05-26T16:01:36.318Z,55.34
2019-05-26T16:04:02.442Z,55.66
2019-05-26T16:06:28.587Z,55.92
2019-05-26T16:08:54.719Z,56.83
2019-05-26T16:11:20.827Z,57.42
2019-05-26T16:13:46.877Z,58.21
2019-05-26T16:16:12.983Z,58.73
2019-05-26T16:18:39.107Z,58.88
2019-05-26T16:21:05.214Z,58.51
2019-05-26T16:23:31.326Z,58.81
2019-05-26T16:25:57.335Z,58.46
2019-05-26T16:28:23.373Z,58.13
2019-05-26T16:30:49.267Z,57.86
2019-05-26T16:33:15.193Z,56.81
2019-05-26T16:35:41.298Z,56.81
2019-05-26T16:38:07.310Z,56.55
2019-05-26T16:40:33.358Z,56.97
2019-05-26T16:42:59.359Z,57.62
2019-05-26T16:45:25.376Z,58.21
2019-05-26T16:47:51.287Z,58.31
2019-05-26T16:50:17.398Z,58.63
2019-05-26T16:52:43.515Z,58.72
2019-05-26T16:55:10.122Z,58.84
2019-05-26T16:57:36.237Z,59.04
2019-05-26T17:00:03.345Z,59.18
2019-05-26T17:02:29.360Z,59.29
2019-05-26T17:04:55.491Z,59.08
2019-05-26T17:07:21.401Z,59.21
2019-05-26T17:09:47.542Z,59.66
2019-05-26T17:12:13.588Z,60.32
2019-05-26T17:14:39.596Z,60.95
2019-05-26T17:17:14.875Z,61.37
2019-05-26T17:19:33.648Z,61.71
2019-05-26T17:21:59.676Z,62.17
2019-05-26T17:24:25.717Z,62.49
2019-05-26T17:26:51.827Z,62.76
2019-05-26T17:29:17.866Z,63.03
2019-05-26T17:31:43.875Z,63.22
2019-05-26T17:34:10.022Z,63.52
2019-05-26T17:36:36.341Z,63.13
2019-05-26T17:39:05.593Z,63.42
2019-05-26T17:41:31.533Z,64.00
2019-05-26T17:43:57.464Z,64.39
2019-05-26T17:46:23.469Z,64.62
2019-05-26T17:48:49.578Z,65.02
2019-05-26T17:51:15.693Z,65.12
2019-05-26T17:53:41.728Z,65.47
2019-05-26T17:56:07.893Z,65.80
2019-05-26T17:58:33.898Z,65.94
2019-05-26T18:01:00.054Z,65.81
2019-05-26T18:03:26.069Z,65.62
2019-05-26T18:05:52.212Z,65.90
2019-05-26T18:08:18.323Z,66.34
2019-05-26T18:10:44.471Z,66.49
2019-05-26T18:13:10.592Z,66.55
2019-05-26T18:15:36.747Z,66.46
2019-05-26T18:18:02.951Z,66.42
2019-05-26T18:20:29.162Z,66.28
2019-05-26T18:22:55.205Z,66.49
2019-05-26T18:25:21.302Z,66.74
2019-05-26T18:27:47.309Z,66.93
2019-05-26T18:30:13.817Z,66.65
2019-05-26T18:32:39.827Z,66.62
2019-05-26T18:35:06.963Z,67.11
2019-05-26T18:37:33.076Z,67.17
2019-05-26T18:39:59.193Z,67.21
2019-05-26T18:42:25.293Z,67.39
2019-05-26T18:44:51.324Z,67.63
2019-05-26T18:47:17.430Z,67.61
2019-05-26T18:49:43.576Z,67.76
2019-05-26T18:52:09.791Z,68.08
2019-05-26T18:54:35.879Z,68.11
2019-05-26T18:57:02.007Z,68.54
2019-05-26T18:59:28.035Z,68.58
2019-05-26T19:01:54.178Z,68.69
2019-05-26T19:04:20.183Z,68.79
2019-05-26T19:06:46.089Z,68.76
2019-05-26T19:09:12.196Z,69.03
2019-05-26T19:11:38.301Z,69.09
2019-05-26T19:14:05.110Z,69.34
2019-05-26T19:16:31.216Z,69.59
2019-05-26T19:18:57.411Z,69.74
2019-05-26T19:21:23.514Z,69.74
2019-05-26T19:23:49.555Z,69.79
2019-05-26T19:26:15.704Z,69.79
2019-05-26T19:28:41.749Z,69.95
2019-05-26T19:31:07.856Z,70.00
2019-05-26T19:33:33.894Z,70.04
2019-05-26T19:35:59.794Z,70.09
2019-05-26T19:38:25.944Z,70.38
2019-05-26T19:40:51.974Z,70.62
2019-05-26T19:43:18.110Z,70.82
2019-05-26T19:45:44.230Z,71.30
2019-05-26T19:48:10.235Z,70.90
2019-05-26T19:50:36.283Z,70.75
2019-05-26T19:53:02.608Z,70.83
2019-05-26T19:55:28.788Z,71.03
2019-05-26T19:57:54.798Z,71.04
2019-05-26T20:00:21.282Z,70.84
2019-05-26T20:02:47.291Z,70.75
2019-05-26T20:05:14.183Z,70.77
2019-05-26T20:07:40.295Z,70.72
2019-05-26T20:10:07.335Z,70.89
2019-05-26T20:12:33.437Z,71.13
2019-05-26T20:14:59.545Z,71.25
2019-05-26T20:17:25.558Z,71.46
2019-05-26T20:19:51.599Z,71.46
2019-05-26T20:22:17.697Z,71.29
2019-05-26T20:24:43.645Z,71.07
2019-05-26T20:27:09.760Z,71.25
2019-05-26T20:29:35.795Z,71.34
2019-05-26T20:32:01.938Z,71.42
2019-05-26T20:34:28.049Z,72.04
2019-05-26T20:36:54.164Z,72.31
2019-05-26T20:39:20.170Z,72.48
2019-05-26T20:41:46.077Z,72.65
2019-05-26T20:44:12.190Z,72.52
2019-05-26T20:46:38.204Z,72.41
2019-05-26T20:49:04.312Z,72.27
2019-05-26T20:51:30.418Z,72.30
2019-05-26T20:53:56.483Z,72.18
2019-05-26T20:56:22.487Z,72.61
2019-05-26T20:58:48.496Z,72.29
2019-05-26T21:01:14.611Z,72.17
2019-05-26T21:03:40.736Z,72.37
2019-05-26T21:06:06.673Z,72.80
2019-05-26T21:08:32.621Z,72.40
2019-05-26T21:10:58.519Z,72.28
2019-05-26T21:13:24.465Z,72.17
2019-05-26T21:15:50.588Z,72.26
2019-05-26T21:18:16.639Z,72.34
2019-05-26T21:20:43.153Z,72.31
2019-05-26T21:23:09.059Z,72.28
2019-05-26T21:25:35.230Z,72.32
2019-05-26T21:28:01.085Z,72.70
2019-05-26T21:30:27.190Z,72.53
2019-05-26T21:32:53.300Z,72.41
2019-05-26T21:35:19.409Z,72.56
2019-05-26T21:37:45.413Z,72.41
2019-05-26T21:40:11.759Z,72.51
2019-05-26T21:42:37.762Z,72.64
2019-05-26T21:45:05.369Z,72.56
2019-05-26T21:47:31.515Z,72.93
2019-05-26T21:49:57.518Z,73.02
2019-05-26T21:52:23.635Z,73.15
2019-05-26T21:54:49.584Z,73.11
2019-05-26T21:57:15.603Z,72.96
2019-05-26T21:59:41.539Z,73.09
2019-05-26T22:02:07.709Z,72.92
2019-05-26T22:04:33.815Z,73.39
2019-05-26T22:06:59.965Z,73.41
2019-05-26T22:09:26.095Z,73.66
2019-05-26T22:11:52.115Z,73.57
2019-05-26T22:14:18.224Z,73.64
2019-05-26T22:16:44.229Z,73.86
2019-05-26T22:19:10.382Z,74.51
2019-05-26T22:21:36.291Z,74.39
2019-05-26T22:24:02.532Z,74.23
2019-05-26T22:26:28.594Z,74.25
2019-05-26T22:28:54.702Z,74.40
2019-05-26T22:31:21.455Z,74.22
2019-05-26T22:33:47.366Z,74.00
2019-05-26T22:36:13.394Z,73.96
2019-05-26T22:38:39.411Z,73.80
2019-05-26T22:41:05.551Z,73.71
2019-05-26T22:43:31.695Z,73.97
2019-05-26T22:45:57.965Z,73.95
2019-05-26T22:48:24.005Z,73.95
2019-05-26T22:50:50.049Z,73.92
2019-05-26T22:53:16.162Z,73.82
2019-05-26T22:55:42.176Z,74.17
2019-05-26T22:58:08.090Z,74.38
2019-05-26T23:00:34.209Z,74.46
2019-05-26T23:03:00.351Z,74.55
2019-05-26T23:05:26.468Z,74.54
2019-05-26T23:07:52.576Z,74.41
2019-05-26T23:10:18.677Z,74.44
2019-05-26T23:12:44.795Z,74.66
2019-05-26T23:15:12.535Z,74.94
2019-05-26T23:17:39.308Z,74.83
2019-05-26T23:20:07.581Z,74.71
2019-05-26T23:22:33.586Z,74.65
2019-05-26T23:24:59.703Z,74.65
2019-05-26T23:27:25.824Z,74.93
2019-05-26T23:29:51.721Z,74.90
2019-05-26T23:32:17.828Z,74.75
2019-05-26T23:34:43.861Z,74.76
2019-05-26T23:37:09.847Z,74.91
2019-05-26T23:39:35.961Z,74.71
2019-05-26T23:42:02.097Z,74.64
2019-05-26T23:44:28.101Z,74.92
2019-05-26T23:46:54.138Z,75.16
2019-05-26T23:49:20.054Z,75.36
2019-05-26T23:51:46.107Z,75.27
2019-05-26T23:54:12.229Z,75.29
2019-05-26T23:56:38.323Z,75.29
2019-05-26T23:59:04.434Z,75.34
